createdAt,value
2023-03-19T00:00:27.022Z,5.35
2023-03-19T00:02:53.735Z,4.95
2023-03-19T00:05:20.446Z,5.07
2023-03-19T00:07:46.988Z,5.00
2023-03-19T00:10:13.606Z,5.38
2023-03-19T00:12:40.713Z,5.10
2023-03-19T00:15:09.020Z,4.55
2023-03-19T00:17:35.741Z,5.13
2023-03-19T00:20:02.539Z,4.50
2023-03-19T00:22:29.135Z,5.45
2023-03-19T00:24:55.790Z,4.88
2023-03-19T00:27:22.324Z,4.93
2023-03-19T00:29:48.857Z,5.60
2023-03-19T00:32:15.509Z,5.38
2023-03-19T00:34:42.750Z,5.60
2023-03-19T00:37:09.343Z,5.68
2023-03-19T00:39:35.987Z,6.07
2023-03-19T00:42:02.604Z,5.70
2023-03-19T00:44:29.197Z,5.55
2023-03-19T00:46:56.180Z,5.97
2023-03-19T00:49:22.725Z,5.88
2023-03-19T00:51:49.378Z,5.85
2023-03-19T00:54:15.882Z,6.30
2023-03-19T00:56:42.499Z,6.35
2023-03-19T00:59:09.127Z,5.90
2023-03-19T01:01:35.812Z,6.40
2023-03-19T01:04:02.444Z,6.00
2023-03-19T01:06:29.001Z,5.75
2023-03-19T01:08:55.949Z,6.57
2023-03-19T01:11:22.497Z,7.03
2023-03-19T01:13:49.109Z,6.68
2023-03-19T01:16:15.836Z,6.60
2023-03-19T01:18:42.461Z,6.80
2023-03-19T01:21:09.181Z,8.30
2023-03-19T01:23:35.871Z,6.45
2023-03-19T01:26:02.890Z,7.25
2023-03-19T01:28:29.482Z,7.25
2023-03-19T01:31:00.774Z,6.75
2023-03-19T01:33:27.866Z,7.05
2023-03-19T01:35:55.189Z,6.53
2023-03-19T01:38:21.977Z,6.18
2023-03-19T01:40:48.832Z,7.22
2023-03-19T01:43:17.306Z,6.50
2023-03-19T01:45:45.230Z,7.25
2023-03-19T01:48:39.086Z,7.25
2023-03-19T01:51:07.589Z,6.68
2023-03-19T01:53:37.914Z,7.47
2023-03-19T01:56:32.390Z,6.78
2023-03-19T01:59:03.990Z,6.80
2023-03-19T02:01:34.138Z,7.10
2023-03-19T02:04:00.875Z,6.63
2023-03-19T02:06:30.088Z,7.30
2023-03-19T02:08:56.860Z,6.60
2023-03-19T02:11:24.282Z,7.55
2023-03-19T02:13:51.154Z,6.60
2023-03-19T02:16:18.046Z,7.38
2023-03-19T02:18:44.849Z,6.60
2023-03-19T02:21:21.860Z,7.22
2023-03-19T02:24:14.118Z,7.18
2023-03-19T02:26:41.719Z,6.35
2023-03-19T02:29:08.569Z,6.90
2023-03-19T02:31:35.429Z,7.82
2023-03-19T02:34:13.923Z,6.90
2023-03-19T02:36:48.869Z,7.05
2023-03-19T02:39:44.862Z,6.82
2023-03-19T02:42:13.214Z,7.03
2023-03-19T02:44:39.847Z,5.93
2023-03-19T02:47:06.533Z,6.10
2023-03-19T02:49:33.094Z,6.47
2023-03-19T02:51:59.801Z,5.68
2023-03-19T02:54:26.364Z,5.80
2023-03-19T02:56:53.228Z,5.70
2023-03-19T02:59:20.959Z,5.95
2023-03-19T03:01:47.623Z,5.95
2023-03-19T03:04:16.393Z,6.03
2023-03-19T03:06:44.057Z,6.13
2023-03-19T03:09:11.843Z,5.82
2023-03-19T03:11:38.614Z,5.95
2023-03-19T03:14:05.148Z,4.88
2023-03-19T03:16:31.760Z,4.82
2023-03-19T03:18:58.653Z,4.82
2023-03-19T03:21:25.462Z,6.07
2023-03-19T03:23:52.317Z,6.68
2023-03-19T03:26:18.871Z,5.10
2023-03-19T03:28:45.481Z,6.43
2023-03-19T03:31:12.140Z,5.80
2023-03-19T03:33:39.060Z,5.70
2023-03-19T03:36:05.998Z,5.40
2023-03-19T03:38:32.819Z,5.70
2023-03-19T03:40:59.370Z,5.63
2023-03-19T03:43:26.800Z,5.50
2023-03-19T03:45:53.524Z,4.95
2023-03-19T03:48:20.210Z,4.57
2023-03-19T03:50:46.831Z,4.72
2023-03-19T03:53:14.279Z,4.93
2023-03-19T03:55:41.363Z,5.15
2023-03-19T03:58:07.912Z,4.40
2023-03-19T04:00:34.879Z,4.10
2023-03-19T04:03:01.632Z,4.97
2023-03-19T04:05:28.262Z,4.63
2023-03-19T04:07:55.927Z,4.68
2023-03-19T04:10:23.427Z,4.75
2023-03-19T04:12:50.663Z,4.45
2023-03-19T04:15:17.227Z,4.88
2023-03-19T04:17:43.760Z,4.47
2023-03-19T04:20:11.036Z,4.35
2023-03-19T04:22:37.660Z,4.80
2023-03-19T04:25:04.933Z,4.35
2023-03-19T04:27:31.490Z,3.83
2023-03-19T04:29:58.361Z,4.30
2023-03-19T04:32:25.228Z,4.50
2023-03-19T04:34:52.296Z,4.25
2023-03-19T04:37:19.845Z,4.13
2023-03-19T04:39:46.910Z,4.35
2023-03-19T04:42:13.500Z,4.00
2023-03-19T04:44:40.652Z,4.65
2023-03-19T04:47:07.297Z,5.00
2023-03-19T04:49:33.871Z,4.70
2023-03-19T04:52:00.796Z,4.10
2023-03-19T04:54:28.255Z,4.75
2023-03-19T04:56:54.881Z,4.57
2023-03-19T04:59:23.129Z,5.07
2023-03-19T05:01:49.961Z,4.45
2023-03-19T05:04:17.597Z,4.35
2023-03-19T05:06:44.310Z,4.25
2023-03-19T05:09:10.831Z,5.13
2023-03-19T05:11:37.552Z,4.28
2023-03-19T05:14:04.369Z,4.28
2023-03-19T05:16:30.978Z,4.85
2023-03-19T05:18:57.865Z,5.38
2023-03-19T05:21:24.727Z,5.03
2023-03-19T05:23:52.601Z,4.53
2023-03-19T05:26:19.295Z,4.50
2023-03-19T05:28:45.894Z,4.38
2023-03-19T05:31:12.449Z,4.80
2023-03-19T05:33:39.012Z,4.47
2023-03-19T05:36:05.929Z,4.47
2023-03-19T05:38:32.490Z,4.15
2023-03-19T05:41:05.035Z,4.38
2023-03-19T05:43:32.495Z,3.78
2023-03-19T05:45:59.281Z,4.90
2023-03-19T05:48:26.451Z,4.45
2023-03-19T05:50:53.170Z,4.57
2023-03-19T05:53:20.489Z,4.38
2023-03-19T05:55:47.218Z,4.25
2023-03-19T05:58:13.870Z,4.38
2023-03-19T06:00:40.482Z,4.03
2023-03-19T06:03:07.275Z,4.22
2023-03-19T06:05:34.059Z,4.13
2023-03-19T06:08:00.817Z,4.03
2023-03-19T06:10:27.668Z,4.95
2023-03-19T06:12:54.249Z,4.40
2023-03-19T06:15:20.989Z,5.20
2023-03-19T06:17:47.552Z,4.63
2023-03-19T06:20:14.304Z,4.20
2023-03-19T06:22:41.203Z,3.90
2023-03-19T06:25:08.250Z,3.60
2023-03-19T06:27:35.065Z,4.18
2023-03-19T06:30:01.629Z,4.15
2023-03-19T06:32:28.131Z,4.82
2023-03-19T06:34:56.138Z,4.05
2023-03-19T06:37:22.682Z,4.35
2023-03-19T06:39:49.633Z,3.92
2023-03-19T06:42:16.947Z,3.90
2023-03-19T06:44:43.548Z,3.53
2023-03-19T06:47:11.446Z,4.30
2023-03-19T06:49:38.054Z,4.40
2023-03-19T06:52:04.768Z,5.53
2023-03-19T06:54:31.592Z,4.53
2023-03-19T06:56:58.494Z,4.47
2023-03-19T06:59:25.790Z,4.07
2023-03-19T07:01:52.599Z,3.67
2023-03-19T07:04:19.467Z,4.50
2023-03-19T07:06:46.412Z,3.95
2023-03-19T07:09:13.023Z,3.80
2023-03-19T07:11:39.581Z,4.40
2023-03-19T07:14:06.268Z,3.80
2023-03-19T07:16:33.017Z,3.72
2023-03-19T07:18:59.622Z,3.75
2023-03-19T07:21:26.210Z,4.38
2023-03-19T07:23:52.829Z,4.22
2023-03-19T07:26:19.496Z,4.13
2023-03-19T07:28:46.128Z,3.75
2023-03-19T07:31:13.097Z,3.75
2023-03-19T07:33:39.759Z,3.72
2023-03-19T07:36:07.111Z,4.07
2023-03-19T07:38:33.685Z,3.75
2023-03-19T07:41:02.647Z,3.50
2023-03-19T07:43:31.119Z,3.45
2023-03-19T07:45:58.430Z,3.65
2023-03-19T07:48:25.048Z,3.75
2023-03-19T07:50:52.047Z,4.15
2023-03-19T07:53:19.209Z,3.65
2023-03-19T07:55:45.887Z,3.80
2023-03-19T07:58:12.450Z,4.32
2023-03-19T08:00:39.136Z,4.72
2023-03-19T08:03:05.944Z,4.30
2023-03-19T08:05:32.498Z,4.18
2023-03-19T08:07:59.103Z,3.67
2023-03-19T08:10:25.748Z,4.15
2023-03-19T08:12:52.379Z,4.15
2023-03-19T08:15:19.155Z,4.07
2023-03-19T08:17:45.818Z,3.97
2023-03-19T08:20:17.970Z,4.30
2023-03-19T08:22:49.225Z,4.15
2023-03-19T08:25:15.882Z,4.50
2023-03-19T08:27:42.732Z,4.03
2023-03-19T08:30:11.156Z,4.13
2023-03-19T08:32:38.047Z,3.88
2023-03-19T08:35:06.083Z,4.10
2023-03-19T08:37:32.777Z,3.83
2023-03-19T08:39:59.320Z,3.47
2023-03-19T08:42:25.950Z,3.38
2023-03-19T08:44:52.555Z,3.83
2023-03-19T08:47:19.076Z,3.70
2023-03-19T08:49:45.664Z,3.33
2023-03-19T08:52:12.374Z,3.00
2023-03-19T08:54:38.940Z,3.28
2023-03-19T08:57:05.956Z,3.55
2023-03-19T08:59:34.181Z,2.75
2023-03-19T09:02:01.451Z,2.88
2023-03-19T09:04:28.814Z,3.58
2023-03-19T09:06:55.817Z,2.67
2023-03-19T09:09:24.196Z,3.08
2023-03-19T09:11:51.078Z,2.90
2023-03-19T09:14:19.716Z,3.38
2023-03-19T09:16:46.389Z,3.28
2023-03-19T09:19:12.916Z,3.35
2023-03-19T09:21:39.718Z,3.92
2023-03-19T09:24:06.674Z,3.92
2023-03-19T09:26:33.328Z,4.05
2023-03-19T09:29:00.000Z,4.13
2023-03-19T09:31:29.424Z,3.30
2023-03-19T09:33:56.269Z,2.90
2023-03-19T09:36:22.844Z,3.00
2023-03-19T09:38:49.500Z,2.78
2023-03-19T09:41:22.148Z,3.30
2023-03-19T09:44:11.827Z,3.53
2023-03-19T09:46:47.189Z,3.25
2023-03-19T09:49:33.339Z,3.60
2023-03-19T09:52:30.319Z,3.90
2023-03-19T09:55:03.563Z,3.65
2023-03-19T09:57:33.086Z,3.88
2023-03-19T09:59:59.632Z,3.97
2023-03-19T10:02:44.132Z,3.25
2023-03-19T10:05:36.468Z,3.50
2023-03-19T10:08:24.782Z,3.50
2023-03-19T10:11:13.215Z,3.28
2023-03-19T10:14:05.508Z,3.65
2023-03-19T10:16:32.384Z,3.90
2023-03-19T10:19:03.298Z,3.28
2023-03-19T10:21:29.760Z,3.80
2023-03-19T10:24:31.727Z,3.17
2023-03-19T10:27:01.500Z,3.75
2023-03-19T10:29:28.426Z,3.47
2023-03-19T10:32:07.607Z,3.38
2023-03-19T10:34:43.000Z,3.45
2023-03-19T10:37:21.467Z,3.65
2023-03-19T10:39:55.513Z,3.40
2023-03-19T10:43:04.037Z,3.65
2023-03-19T10:45:38.642Z,3.65
2023-03-19T10:48:06.382Z,3.63
2023-03-19T10:50:35.045Z,4.35
2023-03-19T10:53:06.789Z,3.65
2023-03-19T10:55:34.283Z,3.47
2023-03-19T10:58:14.791Z,4.13
2023-03-19T11:00:41.644Z,4.22
2023-03-19T11:03:33.249Z,3.83
2023-03-19T11:06:07.599Z,4.03
2023-03-19T11:08:36.606Z,3.25
2023-03-19T11:11:03.839Z,3.63
2023-03-19T11:13:30.937Z,3.88
2023-03-19T11:16:00.518Z,4.07
2023-03-19T11:18:39.085Z,4.15
2023-03-19T11:21:29.154Z,4.10
2023-03-19T11:24:03.795Z,4.20
2023-03-19T11:26:31.184Z,3.97
2023-03-19T11:29:04.072Z,4.45
2023-03-19T11:31:34.205Z,4.53
2023-03-19T11:34:25.216Z,3.90
2023-03-19T11:37:13.992Z,3.85
2023-03-19T11:40:06.729Z,4.18
2023-03-19T11:42:42.689Z,5.32
2023-03-19T11:45:15.061Z,4.55
2023-03-19T11:47:59.750Z,4.28
2023-03-19T11:50:55.923Z,3.85
2023-03-19T11:53:51.514Z,4.10
2023-03-19T11:56:44.673Z,3.83
2023-03-19T11:59:30.232Z,4.15
2023-03-19T12:02:51.351Z,4.10
2023-03-19T12:05:28.112Z,4.35
2023-03-19T12:08:02.127Z,4.03
2023-03-19T12:10:40.677Z,5.13
2023-03-19T12:13:07.150Z,3.65
2023-03-19T12:15:47.093Z,4.18
2023-03-19T12:18:38.815Z,3.40
2023-03-19T12:21:41.164Z,4.43
2023-03-19T12:24:21.747Z,4.65
2023-03-19T12:26:57.130Z,3.78
2023-03-19T12:29:34.352Z,4.68
2023-03-19T12:32:19.635Z,5.07
2023-03-19T12:34:58.675Z,3.67
2023-03-19T12:38:06.464Z,3.58
2023-03-19T12:40:53.224Z,4.00
2023-03-19T12:43:32.519Z,4.47
2023-03-19T12:46:37.908Z,4.18
2023-03-19T12:49:14.778Z,4.00
2023-03-19T12:51:46.580Z,4.10
2023-03-19T12:54:24.166Z,5.95
2023-03-19T12:57:31.034Z,4.90
2023-03-19T13:00:31.850Z,4.63
2023-03-19T13:03:13.246Z,4.07
2023-03-19T13:06:10.822Z,3.55
2023-03-19T13:09:05.030Z,3.80
2023-03-19T13:11:49.144Z,5.40
2023-03-19T13:14:40.509Z,4.43
2023-03-19T13:17:31.129Z,4.18
2023-03-19T13:20:01.363Z,107.15
2023-03-19T13:22:35.535Z,228.77
2023-03-19T13:25:03.271Z,231.60
2023-03-19T13:27:32.436Z,64.70
2023-03-19T13:30:01.317Z,36.38
2023-03-19T13:32:34.630Z,9.45
2023-03-19T13:35:25.946Z,5.28
2023-03-19T13:38:18.480Z,5.35
2023-03-19T13:40:52.600Z,4.40
2023-03-19T13:43:29.056Z,5.10
2023-03-19T13:46:15.712Z,4.15
2023-03-19T13:48:45.575Z,4.80
2023-03-19T13:51:18.094Z,4.28
2023-03-19T13:54:11.566Z,4.13
2023-03-19T13:57:04.134Z,5.75
2023-03-19T13:59:36.028Z,4.90
2023-03-19T14:02:26.202Z,4.43
2023-03-19T14:05:01.987Z,4.50
2023-03-19T14:07:37.582Z,4.40
2023-03-19T14:10:08.851Z,3.80
2023-03-19T14:12:38.752Z,5.00
2023-03-19T14:15:09.116Z,4.30
2023-03-19T14:17:53.395Z,3.63
2023-03-19T14:20:24.694Z,3.45
2023-03-19T14:23:09.632Z,3.65
2023-03-19T14:26:03.326Z,3.80
2023-03-19T14:28:45.041Z,3.33
2023-03-19T14:31:47.235Z,3.05
2023-03-19T14:34:39.360Z,3.85
2023-03-19T14:37:20.783Z,2.42
2023-03-19T14:40:09.532Z,2.97
2023-03-19T14:42:52.588Z,2.88
2023-03-19T14:45:48.324Z,3.65
2023-03-19T14:48:26.017Z,4.25
2023-03-19T14:51:17.651Z,3.58
2023-03-19T14:53:46.381Z,3.42
2023-03-19T14:56:16.241Z,3.08
2023-03-19T14:58:55.563Z,3.22
2023-03-19T15:01:26.808Z,3.15
2023-03-19T15:04:07.901Z,3.85
2023-03-19T15:06:38.520Z,3.80
2023-03-19T15:09:29.764Z,4.03
2023-03-19T15:15:15.575Z,3.70
2023-03-19T15:17:45.325Z,4.25
2023-03-19T15:20:18.543Z,4.57
2023-03-19T15:22:52.982Z,4.43
2023-03-19T15:25:19.758Z,4.07
2023-03-19T15:27:46.610Z,4.10
2023-03-19T15:30:20.179Z,4.18
2023-03-19T15:32:56.729Z,4.28
2023-03-19T15:35:36.785Z,4.00
2023-03-19T15:38:08.753Z,5.03
2023-03-19T15:40:36.742Z,4.70
2023-03-19T15:43:03.891Z,5.07
2023-03-19T15:45:33.709Z,4.32
2023-03-19T15:48:23.165Z,4.90
2023-03-19T15:50:59.137Z,4.40
2023-03-19T15:53:31.384Z,4.40
2023-03-19T15:55:59.867Z,4.25
2023-03-19T15:58:30.214Z,4.38
2023-03-19T16:00:59.478Z,4.28
2023-03-19T16:03:37.656Z,4.40
2023-03-19T16:06:07.865Z,4.50
2023-03-19T16:08:35.242Z,4.03
2023-03-19T16:11:15.379Z,3.90
2023-03-19T16:13:52.529Z,4.25
2023-03-19T16:16:23.490Z,4.20
